Airport ICAO


19:21 UTC

11°C

Overcast


An affordable passengers' Moving Map for your aircraft. Made for the iPad and the iPhone
More information here

LFPT Cormeilles En Vexin


Pontoise FRANCE   VFR


METAR LFPT 231900Z AUTO 04005KT 8000 OVC034 11/07 Q1029 0h21min





NOTAMS

OPEN